Zhangjiakou, China
Current Conditions -  °F | °C
As of 4:30 PM on Sunday 26 Oct 2014 (Local Time) from ZBAA Reporting Station
Clear Clear  
Wind Chill: 63°   Ceiling: Unl
Heat Index: 63°   Visibility: 6mi
Dew Point:   Wind: 9mph
Humidity: 11%   Direction: 50°NE
Pressure: 30.3"   Gusts: NA
Location:  40.83°N, 114.93°E
Report Text: ZBAA 260830Z 05004MPS 020V080 CAVOK 17/M14 Q1026 NOSIG
Loading
Personal Weather Stations






























Interactive Weather Map
Tropical Storm Tracking
New forecast layout! Learn more

10-Day Weather Forecast

Advertisements
Track Severe Weather on mobile